sensor_id;sensor_type;location;lat;lon;timestamp;P1;durP1;ratioP1;P2;durP2;ratioP2
20159;SDS011;50187;50.492;12.134;2023-05-16T00:00:13;5.67;;;5.07;;
20159;SDS011;50187;50.492;12.134;2023-05-16T00:02:41;5.43;;;4.93;;
20159;SDS011;50187;50.492;12.134;2023-05-16T00:05:08;6.07;;;5.00;;
20159;SDS011;50187;50.492;12.134;2023-05-16T00:07:35;5.10;;;4.60;;
20159;SDS011;50187;50.492;12.134;2023-05-16T00:10:02;4.87;;;4.47;;
20159;SDS011;50187;50.492;12.134;2023-05-16T00:12:29;5.23;;;4.67;;
20159;SDS011;50187;50.492;12.134;2023-05-16T00:14:55;5.70;;;4.97;;
20159;SDS011;50187;50.492;12.134;2023-05-16T00:17:22;5.10;;;4.23;;
20159;SDS011;50187;50.492;12.134;2023-05-16T00:19:49;4.90;;;4.40;;
20159;SDS011;50187;50.492;12.134;2023-05-16T00:22:23;4.50;;;4.10;;
20159;SDS011;50187;50.492;12.134;2023-05-16T00:24:50;6.13;;;4.67;;
20159;SDS011;50187;50.492;12.134;2023-05-16T00:27:17;5.13;;;4.70;;
20159;SDS011;50187;50.492;12.134;2023-05-16T00:29:43;4.97;;;4.47;;
20159;SDS011;50187;50.492;12.134;2023-05-16T00:32:10;4.87;;;4.47;;
20159;SDS011;50187;50.492;12.134;2023-05-16T00:34:37;4.20;;;3.77;;
20159;SDS011;50187;50.492;12.134;2023-05-16T00:37:03;4.90;;;4.40;;
20159;SDS011;50187;50.492;12.134;2023-05-16T00:39:30;4.97;;;4.20;;
20159;SDS011;50187;50.492;12.134;2023-05-16T00:41:57;4.03;;;3.63;;
20159;SDS011;50187;50.492;12.134;2023-05-16T00:44:24;4.67;;;4.13;;
20159;SDS011;50187;50.492;12.134;2023-05-16T00:46:50;4.40;;;3.97;;
20159;SDS011;50187;50.492;12.134;2023-05-16T00:49:17;4.40;;;4.00;;
20159;SDS011;50187;50.492;12.134;2023-05-16T00:51:44;4.33;;;3.93;;
20159;SDS011;50187;50.492;12.134;2023-05-16T00:54:11;4.47;;;3.90;;
20159;SDS011;50187;50.492;12.134;2023-05-16T00:56:38;4.77;;;4.17;;
20159;SDS011;50187;50.492;12.134;2023-05-16T00:59:05;3.73;;;3.37;;
20159;SDS011;50187;50.492;12.134;2023-05-16T01:01:32;3.70;;;3.40;;
20159;SDS011;50187;50.492;12.134;2023-05-16T01:04:00;5.17;;;4.03;;
20159;SDS011;50187;50.492;12.134;2023-05-16T01:06:26;3.57;;;3.27;;
20159;SDS011;50187;50.492;12.134;2023-05-16T01:08:53;3.70;;;3.40;;
20159;SDS011;50187;50.492;12.134;2023-05-16T01:11:27;3.97;;;3.67;;
20159;SDS011;50187;50.492;12.134;2023-05-16T01:16:29;3.70;;;3.40;;
20159;SDS011;50187;50.492;12.134;2023-05-16T01:19:10;3.27;;;3.07;;
20159;SDS011;50187;50.492;12.134;2023-05-16T01:21:48;4.83;;;3.13;;
20159;SDS011;50187;50.492;12.134;2023-05-16T01:25:30;3.77;;;3.47;;
20159;SDS011;50187;50.492;12.134;2023-05-16T01:27:39;2.97;;;2.77;;
20159;SDS011;50187;50.492;12.134;2023-05-16T01:30:14;3.47;;;3.17;;
20159;SDS011;50187;50.492;12.134;2023-05-16T01:32:44;3.47;;;3.17;;
20159;SDS011;50187;50.492;12.134;2023-05-16T01:35:12;3.03;;;2.83;;
20159;SDS011;50187;50.492;12.134;2023-05-16T01:43:28;4.37;;;3.37;;
20159;SDS011;50187;50.492;12.134;2023-05-16T01:46:03;3.67;;;3.37;;
20159;SDS011;50187;50.492;12.134;2023-05-16T01:48:52;3.40;;;3.10;;
20159;SDS011;50187;50.492;12.134;2023-05-16T01:51:28;3.27;;;2.97;;
20159;SDS011;50187;50.492;12.134;2023-05-16T01:53:59;3.00;;;2.80;;
20159;SDS011;50187;50.492;12.134;2023-05-16T01:56:32;3.13;;;2.93;;
20159;SDS011;50187;50.492;12.134;2023-05-16T01:58:59;4.70;;;2.90;;
20159;SDS011;50187;50.492;12.134;2023-05-16T02:01:29;2.97;;;2.70;;
20159;SDS011;50187;50.492;12.134;2023-05-16T02:03:57;3.00;;;2.80;;
20159;SDS011;50187;50.492;12.134;2023-05-16T02:06:24;3.30;;;3.00;;
20159;SDS011;50187;50.492;12.134;2023-05-16T02:08:55;2.90;;;2.70;;
20159;SDS011;50187;50.492;12.134;2023-05-16T02:11:21;2.90;;;2.70;;
20159;SDS011;50187;50.492;12.134;2023-05-16T02:13:48;2.80;;;2.60;;
20159;SDS011;50187;50.492;12.134;2023-05-16T02:16:15;3.07;;;2.77;;
20159;SDS011;50187;50.492;12.134;2023-05-16T02:18:41;3.00;;;2.80;;
20159;SDS011;50187;50.492;12.134;2023-05-16T02:21:10;2.70;;;2.50;;
20159;SDS011;50187;50.492;12.134;2023-05-16T02:23:36;2.77;;;2.57;;
20159;SDS011;50187;50.492;12.134;2023-05-16T02:26:03;2.67;;;2.47;;
20159;SDS011;50187;50.492;12.134;2023-05-16T02:28:30;2.70;;;2.50;;
20159;SDS011;50187;50.492;12.134;2023-05-16T02:31:00;2.60;;;2.40;;
20159;SDS011;50187;50.492;12.134;2023-05-16T02:33:27;2.70;;;2.53;;
20159;SDS011;50187;50.492;12.134;2023-05-16T02:35:54;2.47;;;2.37;;
20159;SDS011;50187;50.492;12.134;2023-05-16T02:38:21;2.67;;;2.47;;
20159;SDS011;50187;50.492;12.134;2023-05-16T02:40:47;2.50;;;2.30;;
20159;SDS011;50187;50.492;12.134;2023-05-16T02:43:14;2.67;;;2.47;;
20159;SDS011;50187;50.492;12.134;2023-05-16T02:45:41;2.83;;;2.60;;
20159;SDS011;50187;50.492;12.134;2023-05-16T02:48:08;2.40;;;2.20;;
20159;SDS011;50187;50.492;12.134;2023-05-16T02:50:34;2.70;;;2.50;;
20159;SDS011;50187;50.492;12.134;2023-05-16T02:53:02;2.60;;;2.40;;
20159;SDS011;50187;50.492;12.134;2023-05-16T02:55:29;2.10;;;2.00;;
20159;SDS011;50187;50.492;12.134;2023-05-16T02:57:56;2.40;;;2.30;;
20159;SDS011;50187;50.492;12.134;2023-05-16T03:00:22;2.57;;;2.37;;
20159;SDS011;50187;50.492;12.134;2023-05-16T03:02:49;1.90;;;1.80;;
20159;SDS011;50187;50.492;12.134;2023-05-16T03:05:16;2.47;;;2.37;;
20159;SDS011;50187;50.492;12.134;2023-05-16T03:07:43;2.30;;;2.20;;
20159;SDS011;50187;50.492;12.134;2023-05-16T03:10:10;2.80;;;2.60;;
20159;SDS011;50187;50.492;12.134;2023-05-16T03:12:37;2.50;;;2.37;;
20159;SDS011;50187;50.492;12.134;2023-05-16T03:15:03;2.43;;;2.33;;
20159;SDS011;50187;50.492;12.134;2023-05-16T03:17:31;2.43;;;2.23;;
20159;SDS011;50187;50.492;12.134;2023-05-16T03:19:57;2.33;;;2.13;;
20159;SDS011;50187;50.492;12.134;2023-05-16T03:22:24;2.43;;;2.23;;
20159;SDS011;50187;50.492;12.134;2023-05-16T03:24:50;2.60;;;2.40;;
20159;SDS011;50187;50.492;12.134;2023-05-16T03:27:17;1.77;;;1.67;;
20159;SDS011;50187;50.492;12.134;2023-05-16T03:29:43;2.53;;;2.37;;
20159;SDS011;50187;50.492;12.134;2023-05-16T03:32:10;2.30;;;2.20;;
20159;SDS011;50187;50.492;12.134;2023-05-16T03:34:37;2.53;;;2.33;;
20159;SDS011;50187;50.492;12.134;2023-05-16T03:37:03;1.97;;;1.87;;
20159;SDS011;50187;50.492;12.134;2023-05-16T03:39:30;2.30;;;2.20;;
20159;SDS011;50187;50.492;12.134;2023-05-16T03:41:56;1.97;;;1.87;;
20159;SDS011;50187;50.492;12.134;2023-05-16T03:44:23;2.50;;;2.30;;
20159;SDS011;50187;50.492;12.134;2023-05-16T03:46:49;2.27;;;2.13;;
20159;SDS011;50187;50.492;12.134;2023-05-16T03:49:17;2.40;;;2.30;;
20159;SDS011;50187;50.492;12.134;2023-05-16T03:51:46;2.20;;;2.10;;
20159;SDS011;50187;50.492;12.134;2023-05-16T03:54:14;2.53;;;2.40;;
20159;SDS011;50187;50.492;12.134;2023-05-16T03:56:40;2.23;;;2.13;;
20159;SDS011;50187;50.492;12.134;2023-05-16T03:59:07;1.97;;;1.87;;
20159;SDS011;50187;50.492;12.134;2023-05-16T04:01:33;2.17;;;1.93;;
20159;SDS011;50187;50.492;12.134;2023-05-16T04:04:00;1.80;;;1.70;;
20159;SDS011;50187;50.492;12.134;2023-05-16T04:06:27;2.30;;;2.20;;
20159;SDS011;50187;50.492;12.134;2023-05-16T04:08:54;2.30;;;2.17;;
20159;SDS011;50187;50.492;12.134;2023-05-16T04:11:20;1.90;;;1.80;;
20159;SDS011;50187;50.492;12.134;2023-05-16T04:13:47;2.10;;;2.00;;
20159;SDS011;50187;50.492;12.134;2023-05-16T04:16:13;2.73;;;2.10;;
20159;SDS011;50187;50.492;12.134;2023-05-16T04:18:40;2.23;;;2.13;;
20159;SDS011;50187;50.492;12.134;2023-05-16T04:21:07;2.27;;;2.17;;
20159;SDS011;50187;50.492;12.134;2023-05-16T04:23:36;2.17;;;2.07;;
20159;SDS011;50187;50.492;12.134;2023-05-16T04:26:02;2.40;;;2.20;;
20159;SDS011;50187;50.492;12.134;2023-05-16T04:28:29;2.70;;;2.50;;
20159;SDS011;50187;50.492;12.134;2023-05-16T04:30:56;2.37;;;2.20;;
20159;SDS011;50187;50.492;12.134;2023-05-16T04:33:23;1.93;;;1.83;;
20159;SDS011;50187;50.492;12.134;2023-05-16T04:35:49;2.30;;;2.20;;
20159;SDS011;50187;50.492;12.134;2023-05-16T04:38:16;2.33;;;2.13;;
20159;SDS011;50187;50.492;12.134;2023-05-16T04:40:42;2.13;;;2.03;;
20159;SDS011;50187;50.492;12.134;2023-05-16T04:43:09;2.40;;;2.20;;
20159;SDS011;50187;50.492;12.134;2023-05-16T04:45:35;2.20;;;2.00;;
20159;SDS011;50187;50.492;12.134;2023-05-16T04:48:03;2.10;;;2.00;;
20159;SDS011;50187;50.492;12.134;2023-05-16T04:50:30;2.23;;;2.13;;
20159;SDS011;50187;50.492;12.134;2023-05-16T04:52:56;1.90;;;1.80;;
20159;SDS011;50187;50.492;12.134;2023-05-16T04:55:23;2.03;;;1.93;;
20159;SDS011;50187;50.492;12.134;2023-05-16T04:57:50;2.53;;;2.30;;
20159;SDS011;50187;50.492;12.134;2023-05-16T05:00:16;2.43;;;2.23;;
20159;SDS011;50187;50.492;12.134;2023-05-16T05:02:43;2.63;;;2.00;;
20159;SDS011;50187;50.492;12.134;2023-05-16T05:05:10;1.90;;;1.80;;
20159;SDS011;50187;50.492;12.134;2023-05-16T05:07:36;2.53;;;2.33;;
20159;SDS011;50187;50.492;12.134;2023-05-16T05:10:03;2.13;;;2.03;;
20159;SDS011;50187;50.492;12.134;2023-05-16T05:12:32;2.23;;;2.13;;
20159;SDS011;50187;50.492;12.134;2023-05-16T05:14:58;2.50;;;2.30;;
20159;SDS011;50187;50.492;12.134;2023-05-16T05:17:25;1.90;;;1.80;;
20159;SDS011;50187;50.492;12.134;2023-05-16T05:19:52;1.97;;;1.87;;
20159;SDS011;50187;50.492;12.134;2023-05-16T05:22:18;1.83;;;1.73;;
20159;SDS011;50187;50.492;12.134;2023-05-16T05:24:45;2.30;;;2.20;;
20159;SDS011;50187;50.492;12.134;2023-05-16T05:27:11;1.97;;;1.87;;
20159;SDS011;50187;50.492;12.134;2023-05-16T05:29:38;2.10;;;2.00;;
20159;SDS011;50187;50.492;12.134;2023-05-16T05:32:05;2.10;;;2.00;;
20159;SDS011;50187;50.492;12.134;2023-05-16T05:34:31;1.97;;;1.87;;
20159;SDS011;50187;50.492;12.134;2023-05-16T05:36:58;2.17;;;2.07;;
20159;SDS011;50187;50.492;12.134;2023-05-16T05:39:25;2.07;;;1.97;;
20159;SDS011;50187;50.492;12.134;2023-05-16T05:41:51;2.13;;;1.93;;
20159;SDS011;50187;50.492;12.134;2023-05-16T05:44:18;2.13;;;2.03;;
20159;SDS011;50187;50.492;12.134;2023-05-16T05:46:44;2.13;;;2.03;;
20159;SDS011;50187;50.492;12.134;2023-05-16T05:49:11;2.00;;;1.90;;
20159;SDS011;50187;50.492;12.134;2023-05-16T05:51:38;2.03;;;1.93;;
20159;SDS011;50187;50.492;12.134;2023-05-16T05:54:04;2.00;;;1.90;;
20159;SDS011;50187;50.492;12.134;2023-05-16T05:56:31;2.50;;;2.30;;
20159;SDS011;50187;50.492;12.134;2023-05-16T05:58:58;2.43;;;2.23;;
20159;SDS011;50187;50.492;12.134;2023-05-16T06:01:24;2.87;;;2.67;;
20159;SDS011;50187;50.492;12.134;2023-05-16T06:03:51;4.13;;;3.40;;
20159;SDS011;50187;50.492;12.134;2023-05-16T06:06:17;3.43;;;3.10;;
20159;SDS011;50187;50.492;12.134;2023-05-16T06:08:44;3.00;;;2.80;;
20159;SDS011;50187;50.492;12.134;2023-05-16T06:11:10;3.77;;;2.93;;
20159;SDS011;50187;50.492;12.134;2023-05-16T06:13:37;3.50;;;3.20;;
20159;SDS011;50187;50.492;12.134;2023-05-16T06:16:03;4.80;;;4.40;;
20159;SDS011;50187;50.492;12.134;2023-05-16T06:18:34;3.57;;;3.30;;
20159;SDS011;50187;50.492;12.134;2023-05-16T06:21:00;5.83;;;3.50;;
20159;SDS011;50187;50.492;12.134;2023-05-16T06:23:27;4.00;;;3.70;;
20159;SDS011;50187;50.492;12.134;2023-05-16T06:25:53;5.30;;;4.00;;
20159;SDS011;50187;50.492;12.134;2023-05-16T06:28:20;4.73;;;4.00;;
20159;SDS011;50187;50.492;12.134;2023-05-16T06:30:46;4.80;;;3.80;;
20159;SDS011;50187;50.492;12.134;2023-05-16T06:33:13;4.37;;;3.93;;
20159;SDS011;50187;50.492;12.134;2023-05-16T06:35:40;4.70;;;4.30;;
20159;SDS011;50187;50.492;12.134;2023-05-16T06:38:07;3.60;;;3.30;;
20159;SDS011;50187;50.492;12.134;2023-05-16T06:40:33;5.60;;;3.90;;
20159;SDS011;50187;50.492;12.134;2023-05-16T06:43:00;9.53;;;3.90;;
20159;SDS011;50187;50.492;12.134;2023-05-16T06:45:26;4.70;;;3.60;;
20159;SDS011;50187;50.492;12.134;2023-05-16T06:47:54;5.67;;;3.97;;
20159;SDS011;50187;50.492;12.134;2023-05-16T06:50:22;6.40;;;3.70;;
20159;SDS011;50187;50.492;12.134;2023-05-16T06:52:49;4.80;;;3.43;;
20159;SDS011;50187;50.492;12.134;2023-05-16T06:55:16;6.53;;;3.40;;
20159;SDS011;50187;50.492;12.134;2023-05-16T06:57:42;8.97;;;3.60;;
20159;SDS011;50187;50.492;12.134;2023-05-16T07:00:09;3.73;;;3.27;;
20159;SDS011;50187;50.492;12.134;2023-05-16T07:02:36;4.67;;;3.80;;
20159;SDS011;50187;50.492;12.134;2023-05-16T07:05:02;3.90;;;3.50;;
20159;SDS011;50187;50.492;12.134;2023-05-16T07:07:29;4.93;;;3.70;;
20159;SDS011;50187;50.492;12.134;2023-05-16T07:09:55;6.03;;;3.33;;
20159;SDS011;50187;50.492;12.134;2023-05-16T07:12:22;5.00;;;3.23;;
20159;SDS011;50187;50.492;12.134;2023-05-16T07:14:49;16.37;;;4.90;;
20159;SDS011;50187;50.492;12.134;2023-05-16T07:17:15;17.53;;;5.47;;
20159;SDS011;50187;50.492;12.134;2023-05-16T07:19:42;13.57;;;4.60;;
20159;SDS011;50187;50.492;12.134;2023-05-16T07:22:08;14.37;;;4.00;;
20159;SDS011;50187;50.492;12.134;2023-05-16T07:24:36;9.30;;;4.40;;
20159;SDS011;50187;50.492;12.134;2023-05-16T07:27:03;11.33;;;4.63;;
20159;SDS011;50187;50.492;12.134;2023-05-16T07:29:29;14.77;;;4.47;;
20159;SDS011;50187;50.492;12.134;2023-05-16T07:31:56;10.73;;;4.20;;
20159;SDS011;50187;50.492;12.134;2023-05-16T07:34:22;10.63;;;4.47;;
20159;SDS011;50187;50.492;12.134;2023-05-16T07:36:49;7.37;;;4.60;;
20159;SDS011;50187;50.492;12.134;2023-05-16T07:39:16;16.60;;;4.60;;
20159;SDS011;50187;50.492;12.134;2023-05-16T07:41:42;8.93;;;4.87;;
20159;SDS011;50187;50.492;12.134;2023-05-16T07:44:09;9.03;;;4.20;;
20159;SDS011;50187;50.492;12.134;2023-05-16T07:46:35;96.73;;;19.13;;
20159;SDS011;50187;50.492;12.134;2023-05-16T07:49:02;72.53;;;15.13;;
20159;SDS011;50187;50.492;12.134;2023-05-16T07:51:29;52.27;;;9.57;;
20159;SDS011;50187;50.492;12.134;2023-05-16T07:53:55;43.23;;;10.07;;
20159;SDS011;50187;50.492;12.134;2023-05-16T07:56:22;47.70;;;11.77;;
20159;SDS011;50187;50.492;12.134;2023-05-16T07:58:49;51.00;;;10.97;;
20159;SDS011;50187;50.492;12.134;2023-05-16T08:01:15;321.30;;;58.80;;
20159;SDS011;50187;50.492;12.134;2023-05-16T08:03:42;236.27;;;43.80;;
20159;SDS011;50187;50.492;12.134;2023-05-16T08:06:09;187.30;;;29.47;;
20159;SDS011;50187;50.492;12.134;2023-05-16T08:08:35;133.60;;;28.33;;
20159;SDS011;50187;50.492;12.134;2023-05-16T08:11:02;137.60;;;24.97;;
20159;SDS011;50187;50.492;12.134;2023-05-16T08:13:29;95.60;;;21.97;;
20159;SDS011;50187;50.492;12.134;2023-05-16T08:15:56;249.47;;;46.90;;
20159;SDS011;50187;50.492;12.134;2023-05-16T08:18:23;206.77;;;39.80;;
20159;SDS011;50187;50.492;12.134;2023-05-16T08:20:50;142.70;;;29.63;;
20159;SDS011;50187;50.492;12.134;2023-05-16T08:23:17;86.43;;;20.63;;
20159;SDS011;50187;50.492;12.134;2023-05-16T08:25:44;80.70;;;17.70;;
20159;SDS011;50187;50.492;12.134;2023-05-16T08:28:10;65.40;;;16.53;;
20159;SDS011;50187;50.492;12.134;2023-05-16T08:30:37;52.83;;;14.73;;
20159;SDS011;50187;50.492;12.134;2023-05-16T08:33:07;50.77;;;14.17;;
20159;SDS011;50187;50.492;12.134;2023-05-16T08:35:35;46.37;;;11.83;;
20159;SDS011;50187;50.492;12.134;2023-05-16T08:38:02;49.67;;;14.00;;
20159;SDS011;50187;50.492;12.134;2023-05-16T08:40:28;41.97;;;11.27;;
20159;SDS011;50187;50.492;12.134;2023-05-16T08:42:55;32.10;;;9.87;;
20159;SDS011;50187;50.492;12.134;2023-05-16T08:45:22;31.87;;;10.73;;
20159;SDS011;50187;50.492;12.134;2023-05-16T08:47:49;28.20;;;8.83;;
20159;SDS011;50187;50.492;12.134;2023-05-16T08:50:18;30.83;;;8.57;;
20159;SDS011;50187;50.492;12.134;2023-05-16T08:52:45;25.57;;;7.87;;
20159;SDS011;50187;50.492;12.134;2023-05-16T08:55:14;22.43;;;6.97;;
20159;SDS011;50187;50.492;12.134;2023-05-16T08:57:44;22.30;;;6.67;;
20159;SDS011;50187;50.492;12.134;2023-05-16T09:00:12;24.20;;;6.17;;
20159;SDS011;50187;50.492;12.134;2023-05-16T09:02:42;19.13;;;7.00;;
20159;SDS011;50187;50.492;12.134;2023-05-16T09:05:13;18.80;;;6.43;;
20159;SDS011;50187;50.492;12.134;2023-05-16T09:07:41;18.27;;;6.50;;
20159;SDS011;50187;50.492;12.134;2023-05-16T09:10:09;12.40;;;5.80;;
20159;SDS011;50187;50.492;12.134;2023-05-16T09:12:36;15.63;;;5.77;;
20159;SDS011;50187;50.492;12.134;2023-05-16T09:15:05;13.87;;;5.70;;
20159;SDS011;50187;50.492;12.134;2023-05-16T09:17:33;14.60;;;5.40;;
20159;SDS011;50187;50.492;12.134;2023-05-16T09:23:16;9.97;;;5.43;;
20159;SDS011;50187;50.492;12.134;2023-05-16T09:25:35;8.97;;;4.60;;
20159;SDS011;50187;50.492;12.134;2023-05-16T09:28:02;10.97;;;4.70;;
20159;SDS011;50187;50.492;12.134;2023-05-16T09:30:32;8.63;;;4.97;;
20159;SDS011;50187;50.492;12.134;2023-05-16T09:33:00;10.53;;;4.83;;
20159;SDS011;50187;50.492;12.134;2023-05-16T09:35:27;8.80;;;4.77;;
20159;SDS011;50187;50.492;12.134;2023-05-16T09:37:56;11.53;;;5.43;;
20159;SDS011;50187;50.492;12.134;2023-05-16T09:40:23;9.40;;;4.83;;
20159;SDS011;50187;50.492;12.134;2023-05-16T09:43:00;9.23;;;5.43;;
20159;SDS011;50187;50.492;12.134;2023-05-16T09:45:30;10.03;;;5.27;;
20159;SDS011;50187;50.492;12.134;2023-05-16T09:48:00;9.37;;;4.50;;
20159;SDS011;50187;50.492;12.134;2023-05-16T09:50:31;10.97;;;5.03;;
20159;SDS011;50187;50.492;12.134;2023-05-16T09:52:58;7.83;;;4.37;;
20159;SDS011;50187;50.492;12.134;2023-05-16T09:55:26;5.50;;;3.80;;
20159;SDS011;50187;50.492;12.134;2023-05-16T09:57:53;6.00;;;4.13;;
20159;SDS011;50187;50.492;12.134;2023-05-16T10:00:20;8.93;;;4.47;;
20159;SDS011;50187;50.492;12.134;2023-05-16T10:02:47;6.03;;;4.40;;
20159;SDS011;50187;50.492;12.134;2023-05-16T10:05:14;7.67;;;4.70;;
20159;SDS011;50187;50.492;12.134;2023-05-16T10:07:42;10.83;;;5.53;;
20159;SDS011;50187;50.492;12.134;2023-05-16T10:10:10;7.40;;;5.30;;
20159;SDS011;50187;50.492;12.134;2023-05-16T10:12:39;8.77;;;4.93;;
20159;SDS011;50187;50.492;12.134;2023-05-16T10:15:06;7.53;;;5.57;;
20159;SDS011;50187;50.492;12.134;2023-05-16T10:17:35;4.97;;;3.90;;
20159;SDS011;50187;50.492;12.134;2023-05-16T10:20:06;4.90;;;4.37;;
20159;SDS011;50187;50.492;12.134;2023-05-16T10:22:35;4.53;;;4.00;;
20159;SDS011;50187;50.492;12.134;2023-05-16T10:27:54;4.27;;;3.73;;
20159;SDS011;50187;50.492;12.134;2023-05-16T10:30:20;4.50;;;4.20;;
20159;SDS011;50187;50.492;12.134;2023-05-16T10:32:47;4.17;;;3.87;;
20159;SDS011;50187;50.492;12.134;2023-05-16T10:35:16;5.10;;;3.83;;
20159;SDS011;50187;50.492;12.134;2023-05-16T10:37:43;4.90;;;4.00;;
20159;SDS011;50187;50.492;12.134;2023-05-16T10:40:10;3.57;;;3.27;;
20159;SDS011;50187;50.492;12.134;2023-05-16T10:42:37;4.70;;;3.70;;
20159;SDS011;50187;50.492;12.134;2023-05-16T10:47:53;3.83;;;3.37;;
20159;SDS011;50187;50.492;12.134;2023-05-16T10:50:39;4.40;;;3.87;;
20159;SDS011;50187;50.492;12.134;2023-05-16T10:58:38;4.47;;;4.07;;
20159;SDS011;50187;50.492;12.134;2023-05-16T11:01:14;4.47;;;4.17;;
20159;SDS011;50187;50.492;12.134;2023-05-16T11:06:23;4.20;;;3.80;;
20159;SDS011;50187;50.492;12.134;2023-05-16T11:11:43;3.57;;;3.27;;
20159;SDS011;50187;50.492;12.134;2023-05-16T11:14:28;31.93;;;11.93;;
20159;SDS011;50187;50.492;12.134;2023-05-16T11:24:34;28.60;;;8.27;;
20159;SDS011;50187;50.492;12.134;2023-05-16T11:27:02;26.37;;;6.80;;
20159;SDS011;50187;50.492;12.134;2023-05-16T11:29:30;19.80;;;6.57;;
20159;SDS011;50187;50.492;12.134;2023-05-16T11:31:59;15.87;;;5.73;;
20159;SDS011;50187;50.492;12.134;2023-05-16T11:34:27;12.83;;;5.10;;
20159;SDS011;50187;50.492;12.134;2023-05-16T11:36:53;15.20;;;5.47;;
20159;SDS011;50187;50.492;12.134;2023-05-16T11:39:22;11.83;;;4.73;;
20159;SDS011;50187;50.492;12.134;2023-05-16T11:41:54;10.77;;;4.83;;
20159;SDS011;50187;50.492;12.134;2023-05-16T11:44:24;10.40;;;5.10;;
20159;SDS011;50187;50.492;12.134;2023-05-16T11:46:50;14.00;;;5.67;;
20159;SDS011;50187;50.492;12.134;2023-05-16T11:49:17;12.37;;;4.37;;
20159;SDS011;50187;50.492;12.134;2023-05-16T11:51:43;9.80;;;4.20;;
20159;SDS011;50187;50.492;12.134;2023-05-16T11:54:10;10.10;;;4.40;;
20159;SDS011;50187;50.492;12.134;2023-05-16T11:56:38;8.27;;;3.77;;
20159;SDS011;50187;50.492;12.134;2023-05-16T11:59:08;10.10;;;3.50;;
20159;SDS011;50187;50.492;12.134;2023-05-16T12:01:37;5.50;;;3.97;;
20159;SDS011;50187;50.492;12.134;2023-05-16T12:04:08;9.80;;;4.27;;
20159;SDS011;50187;50.492;12.134;2023-05-16T12:06:36;5.73;;;3.47;;
20159;SDS011;50187;50.492;12.134;2023-05-16T12:09:06;7.53;;;3.77;;
20159;SDS011;50187;50.492;12.134;2023-05-16T12:11:37;5.23;;;4.03;;
20159;SDS011;50187;50.492;12.134;2023-05-16T12:14:04;7.10;;;3.70;;
20159;SDS011;50187;50.492;12.134;2023-05-16T12:16:32;10.20;;;4.47;;
20159;SDS011;50187;50.492;12.134;2023-05-16T12:18:59;4.23;;;3.13;;
20159;SDS011;50187;50.492;12.134;2023-05-16T12:21:27;5.70;;;3.23;;
20159;SDS011;50187;50.492;12.134;2023-05-16T12:23:54;7.90;;;3.80;;
20159;SDS011;50187;50.492;12.134;2023-05-16T12:26:23;5.13;;;3.10;;
20159;SDS011;50187;50.492;12.134;2023-05-16T12:28:59;4.07;;;3.57;;
20159;SDS011;50187;50.492;12.134;2023-05-16T12:31:28;3.60;;;3.30;;
20159;SDS011;50187;50.492;12.134;2023-05-16T12:33:58;5.70;;;3.20;;
20159;SDS011;50187;50.492;12.134;2023-05-16T12:36:24;3.90;;;3.60;;
20159;SDS011;50187;50.492;12.134;2023-05-16T12:38:53;7.33;;;3.47;;
20159;SDS011;50187;50.492;12.134;2023-05-16T12:41:21;4.60;;;3.43;;
20159;SDS011;50187;50.492;12.134;2023-05-16T12:43:48;4.37;;;3.97;;
20159;SDS011;50187;50.492;12.134;2023-05-16T12:46:15;4.47;;;3.40;;
20159;SDS011;50187;50.492;12.134;2023-05-16T12:48:42;5.77;;;4.00;;
20159;SDS011;50187;50.492;12.134;2023-05-16T12:51:13;6.80;;;3.73;;
20159;SDS011;50187;50.492;12.134;2023-05-16T12:53:44;3.83;;;3.50;;
20159;SDS011;50187;50.492;12.134;2023-05-16T12:56:42;4.93;;;3.83;;
20159;SDS011;50187;50.492;12.134;2023-05-16T12:59:09;3.37;;;3.07;;
20159;SDS011;50187;50.492;12.134;2023-05-16T13:01:37;4.00;;;3.40;;
20159;SDS011;50187;50.492;12.134;2023-05-16T13:04:05;3.77;;;3.30;;
20159;SDS011;50187;50.492;12.134;2023-05-16T13:06:33;4.50;;;3.47;;
20159;SDS011;50187;50.492;12.134;2023-05-16T13:09:20;4.20;;;3.50;;
20159;SDS011;50187;50.492;12.134;2023-05-16T13:11:47;4.67;;;3.67;;
20159;SDS011;50187;50.492;12.134;2023-05-16T13:14:13;8.43;;;3.67;;
20159;SDS011;50187;50.492;12.134;2023-05-16T13:16:40;4.23;;;3.63;;
20159;SDS011;50187;50.492;12.134;2023-05-16T13:19:06;4.07;;;3.57;;
20159;SDS011;50187;50.492;12.134;2023-05-16T13:21:33;4.07;;;3.20;;
20159;SDS011;50187;50.492;12.134;2023-05-16T13:23:59;3.77;;;3.47;;
20159;SDS011;50187;50.492;12.134;2023-05-16T13:26:26;3.57;;;3.27;;
20159;SDS011;50187;50.492;12.134;2023-05-16T13:28:53;3.67;;;3.43;;
20159;SDS011;50187;50.492;12.134;2023-05-16T13:31:20;4.57;;;3.27;;
20159;SDS011;50187;50.492;12.134;2023-05-16T13:38:03;3.50;;;3.30;;
20159;SDS011;50187;50.492;12.134;2023-05-16T13:40:30;3.57;;;3.27;;
20159;SDS011;50187;50.492;12.134;2023-05-16T13:42:56;3.33;;;3.03;;
20159;SDS011;50187;50.492;12.134;2023-05-16T13:45:23;3.23;;;3.03;;
20159;SDS011;50187;50.492;12.134;2023-05-16T13:47:49;3.70;;;3.10;;
20159;SDS011;50187;50.492;12.134;2023-05-16T13:50:16;3.47;;;3.27;;
20159;SDS011;50187;50.492;12.134;2023-05-16T13:52:43;3.73;;;3.17;;
20159;SDS011;50187;50.492;12.134;2023-05-16T13:55:09;3.53;;;3.23;;
20159;SDS011;50187;50.492;12.134;2023-05-16T13:57:36;3.50;;;3.20;;
20159;SDS011;50187;50.492;12.134;2023-05-16T14:00:06;3.93;;;2.97;;
20159;SDS011;50187;50.492;12.134;2023-05-16T14:02:42;3.10;;;2.90;;
20159;SDS011;50187;50.492;12.134;2023-05-16T14:05:09;5.73;;;3.40;;
20159;SDS011;50187;50.492;12.134;2023-05-16T14:07:35;3.57;;;3.27;;
20159;SDS011;50187;50.492;12.134;2023-05-16T14:10:02;3.53;;;3.23;;
20159;SDS011;50187;50.492;12.134;2023-05-16T14:12:31;3.23;;;3.03;;
20159;SDS011;50187;50.492;12.134;2023-05-16T14:14:58;3.57;;;3.37;;
20159;SDS011;50187;50.492;12.134;2023-05-16T14:17:25;3.47;;;3.27;;
20159;SDS011;50187;50.492;12.134;2023-05-16T14:19:52;3.97;;;3.30;;
20159;SDS011;50187;50.492;12.134;2023-05-16T14:22:18;2.97;;;2.77;;
20159;SDS011;50187;50.492;12.134;2023-05-16T14:24:45;3.27;;;3.07;;
20159;SDS011;50187;50.492;12.134;2023-05-16T14:27:12;2.73;;;2.60;;
20159;SDS011;50187;50.492;12.134;2023-05-16T14:29:40;2.93;;;2.73;;
20159;SDS011;50187;50.492;12.134;2023-05-16T14:32:06;3.47;;;2.80;;
20159;SDS011;50187;50.492;12.134;2023-05-16T14:34:34;4.77;;;3.50;;
20159;SDS011;50187;50.492;12.134;2023-05-16T14:37:00;4.20;;;3.80;;
20159;SDS011;50187;50.492;12.134;2023-05-16T14:39:27;3.93;;;3.60;;
20159;SDS011;50187;50.492;12.134;2023-05-16T14:41:53;3.67;;;3.37;;
20159;SDS011;50187;50.492;12.134;2023-05-16T14:44:20;4.30;;;3.40;;
20159;SDS011;50187;50.492;12.134;2023-05-16T14:46:49;4.20;;;3.83;;
20159;SDS011;50187;50.492;12.134;2023-05-16T14:49:17;6.37;;;3.60;;
20159;SDS011;50187;50.492;12.134;2023-05-16T14:51:43;3.90;;;3.20;;
20159;SDS011;50187;50.492;12.134;2023-05-16T14:54:17;4.23;;;3.30;;
20159;SDS011;50187;50.492;12.134;2023-05-16T14:56:44;4.13;;;3.10;;
20159;SDS011;50187;50.492;12.134;2023-05-16T14:59:11;6.63;;;3.40;;
20159;SDS011;50187;50.492;12.134;2023-05-16T15:01:38;6.93;;;3.90;;
20159;SDS011;50187;50.492;12.134;2023-05-16T15:04:05;20.47;;;17.90;;
20159;SDS011;50187;50.492;12.134;2023-05-16T15:06:31;93.70;;;81.13;;
20159;SDS011;50187;50.492;12.134;2023-05-16T15:08:58;122.80;;;106.90;;
20159;SDS011;50187;50.492;12.134;2023-05-16T15:11:24;91.60;;;76.50;;
20159;SDS011;50187;50.492;12.134;2023-05-16T15:13:51;81.80;;;69.37;;